sensor_id;sensor_type;location;lat;lon;timestamp;temperature;humidity
43665;DHT22;29263;48.172;11.484;2023-09-30T00:00:25;16.90;99.90
43665;DHT22;29263;48.172;11.484;2023-09-30T00:02:51;16.80;99.90
43665;DHT22;29263;48.172;11.484;2023-09-30T00:05:16;16.80;99.90
43665;DHT22;29263;48.172;11.484;2023-09-30T00:07:45;16.70;99.90
43665;DHT22;29263;48.172;11.484;2023-09-30T00:10:11;16.60;99.90
43665;DHT22;29263;48.172;11.484;2023-09-30T00:12:36;16.60;99.90
43665;DHT22;29263;48.172;11.484;2023-09-30T00:15:02;16.60;99.90
43665;DHT22;29263;48.172;11.484;2023-09-30T00:17:29;16.50;99.90
43665;DHT22;29263;48.172;11.484;2023-09-30T00:19:55;16.50;99.90
43665;DHT22;29263;48.172;11.484;2023-09-30T00:22:21;16.50;99.90
43665;DHT22;29263;48.172;11.484;2023-09-30T00:24:46;16.50;99.90
43665;DHT22;29263;48.172;11.484;2023-09-30T00:27:12;16.40;99.90
43665;DHT22;29263;48.172;11.484;2023-09-30T00:29:38;16.40;99.90
43665;DHT22;29263;48.172;11.484;2023-09-30T00:32:04;16.40;99.90
43665;DHT22;29263;48.172;11.484;2023-09-30T00:34:36;16.20;99.90
43665;DHT22;29263;48.172;11.484;2023-09-30T00:37:02;16.10;99.90
43665;DHT22;29263;48.172;11.484;2023-09-30T00:39:28;16.10;99.90
43665;DHT22;29263;48.172;11.484;2023-09-30T00:41:57;16.10;99.90
43665;DHT22;29263;48.172;11.484;2023-09-30T00:44:26;16.00;99.90
43665;DHT22;29263;48.172;11.484;2023-09-30T00:46:54;16.00;99.90
43665;DHT22;29263;48.172;11.484;2023-09-30T00:49:22;15.90;99.90
43665;DHT22;29263;48.172;11.484;2023-09-30T00:51:54;15.90;99.90
43665;DHT22;29263;48.172;11.484;2023-09-30T00:54:22;15.90;99.90
43665;DHT22;29263;48.172;11.484;2023-09-30T00:56:58;15.90;99.90
43665;DHT22;29263;48.172;11.484;2023-09-30T00:59:30;15.90;99.90
43665;DHT22;29263;48.172;11.484;2023-09-30T01:01:58;15.90;99.90
43665;DHT22;29263;48.172;11.484;2023-09-30T01:04:28;15.80;99.90
43665;DHT22;29263;48.172;11.484;2023-09-30T01:06:54;15.80;99.90
43665;DHT22;29263;48.172;11.484;2023-09-30T01:09:23;15.70;99.90
43665;DHT22;29263;48.172;11.484;2023-09-30T01:11:49;15.70;99.90
43665;DHT22;29263;48.172;11.484;2023-09-30T01:14:37;15.70;99.90
43665;DHT22;29263;48.172;11.484;2023-09-30T01:17:21;15.70;99.90
43665;DHT22;29263;48.172;11.484;2023-09-30T01:19:48;15.70;99.90
43665;DHT22;29263;48.172;11.484;2023-09-30T01:22:15;15.70;99.90
43665;DHT22;29263;48.172;11.484;2023-09-30T01:24:42;15.70;99.90
43665;DHT22;29263;48.172;11.484;2023-09-30T01:27:11;15.70;99.90
43665;DHT22;29263;48.172;11.484;2023-09-30T01:29:41;15.70;99.90
43665;DHT22;29263;48.172;11.484;2023-09-30T01:32:07;15.70;99.90
43665;DHT22;29263;48.172;11.484;2023-09-30T01:34:34;15.70;99.90
43665;DHT22;29263;48.172;11.484;2023-09-30T01:40:04;15.70;99.90
43665;DHT22;29263;48.172;11.484;2023-09-30T01:42:37;15.60;99.90
43665;DHT22;29263;48.172;11.484;2023-09-30T01:45:03;15.60;99.90
43665;DHT22;29263;48.172;11.484;2023-09-30T01:47:38;15.60;99.90
43665;DHT22;29263;48.172;11.484;2023-09-30T01:50:04;15.60;99.90
43665;DHT22;29263;48.172;11.484;2023-09-30T01:52:36;15.60;99.90
43665;DHT22;29263;48.172;11.484;2023-09-30T01:57:54;15.50;99.90
43665;DHT22;29263;48.172;11.484;2023-09-30T02:00:20;15.50;99.90
43665;DHT22;29263;48.172;11.484;2023-09-30T02:02:46;15.40;99.90
43665;DHT22;29263;48.172;11.484;2023-09-30T02:08:34;15.30;99.90
43665;DHT22;29263;48.172;11.484;2023-09-30T02:11:02;15.20;99.90
43665;DHT22;29263;48.172;11.484;2023-09-30T02:13:29;15.20;99.90
43665;DHT22;29263;48.172;11.484;2023-09-30T02:15:58;15.20;99.90
43665;DHT22;29263;48.172;11.484;2023-09-30T02:18:23;15.20;99.90
43665;DHT22;29263;48.172;11.484;2023-09-30T02:20:49;15.20;99.90
43665;DHT22;29263;48.172;11.484;2023-09-30T02:25:55;15.20;99.90
43665;DHT22;29263;48.172;11.484;2023-09-30T02:28:21;15.20;99.90
43665;DHT22;29263;48.172;11.484;2023-09-30T02:30:51;15.30;99.90
43665;DHT22;29263;48.172;11.484;2023-09-30T02:33:23;15.30;99.90
43665;DHT22;29263;48.172;11.484;2023-09-30T02:45:00;15.30;99.90
43665;DHT22;29263;48.172;11.484;2023-09-30T02:47:29;15.30;99.90
43665;DHT22;29263;48.172;11.484;2023-09-30T02:49:57;15.30;99.90
43665;DHT22;29263;48.172;11.484;2023-09-30T02:52:29;15.30;99.90
43665;DHT22;29263;48.172;11.484;2023-09-30T02:54:55;15.30;99.90
43665;DHT22;29263;48.172;11.484;2023-09-30T02:57:25;15.40;99.90
43665;DHT22;29263;48.172;11.484;2023-09-30T03:00:24;15.30;99.90
43665;DHT22;29263;48.172;11.484;2023-09-30T03:02:59;15.30;99.90
43665;DHT22;29263;48.172;11.484;2023-09-30T03:08:20;15.40;99.90
43665;DHT22;29263;48.172;11.484;2023-09-30T03:14:04;15.40;99.90
43665;DHT22;29263;48.172;11.484;2023-09-30T03:16:34;15.40;99.90
43665;DHT22;29263;48.172;11.484;2023-09-30T03:19:05;15.40;99.90
43665;DHT22;29263;48.172;11.484;2023-09-30T03:21:40;15.40;99.90
43665;DHT22;29263;48.172;11.484;2023-09-30T03:24:09;15.40;99.90
43665;DHT22;29263;48.172;11.484;2023-09-30T03:26:35;15.40;99.90
43665;DHT22;29263;48.172;11.484;2023-09-30T03:29:02;15.40;99.90
43665;DHT22;29263;48.172;11.484;2023-09-30T03:31:31;15.40;99.90
43665;DHT22;29263;48.172;11.484;2023-09-30T03:34:03;15.40;99.90
43665;DHT22;29263;48.172;11.484;2023-09-30T03:36:30;15.40;99.90
43665;DHT22;29263;48.172;11.484;2023-09-30T03:42:03;15.40;99.90
43665;DHT22;29263;48.172;11.484;2023-09-30T03:44:31;15.40;99.90
43665;DHT22;29263;48.172;11.484;2023-09-30T03:46:59;15.40;99.90
43665;DHT22;29263;48.172;11.484;2023-09-30T03:49:35;15.40;99.90
43665;DHT22;29263;48.172;11.484;2023-09-30T03:52:01;15.40;99.90
43665;DHT22;29263;48.172;11.484;2023-09-30T03:54:30;15.40;99.90
43665;DHT22;29263;48.172;11.484;2023-09-30T03:56:57;15.40;99.90
43665;DHT22;29263;48.172;11.484;2023-09-30T03:59:32;15.40;99.90
43665;DHT22;29263;48.172;11.484;2023-09-30T04:01:59;15.50;99.90
43665;DHT22;29263;48.172;11.484;2023-09-30T04:04:26;15.50;99.90
43665;DHT22;29263;48.172;11.484;2023-09-30T04:06:52;15.50;99.90
43665;DHT22;29263;48.172;11.484;2023-09-30T04:09:18;15.60;99.90
43665;DHT22;29263;48.172;11.484;2023-09-30T04:11:49;15.60;99.90
43665;DHT22;29263;48.172;11.484;2023-09-30T04:14:36;15.60;99.90
43665;DHT22;29263;48.172;11.484;2023-09-30T04:17:05;15.60;99.90
43665;DHT22;29263;48.172;11.484;2023-09-30T04:19:30;15.70;99.90
43665;DHT22;29263;48.172;11.484;2023-09-30T04:21:57;15.70;99.90
43665;DHT22;29263;48.172;11.484;2023-09-30T04:24:23;15.70;99.90
43665;DHT22;29263;48.172;11.484;2023-09-30T04:30:15;15.70;99.90
43665;DHT22;29263;48.172;11.484;2023-09-30T04:32:43;15.80;99.90
43665;DHT22;29263;48.172;11.484;2023-09-30T04:35:10;15.80;99.90
43665;DHT22;29263;48.172;11.484;2023-09-30T04:37:39;15.80;99.90
43665;DHT22;29263;48.172;11.484;2023-09-30T04:40:06;15.80;99.90
43665;DHT22;29263;48.172;11.484;2023-09-30T04:42:34;15.90;99.90
43665;DHT22;29263;48.172;11.484;2023-09-30T04:45:03;15.80;99.90
43665;DHT22;29263;48.172;11.484;2023-09-30T04:47:29;15.80;99.90
43665;DHT22;29263;48.172;11.484;2023-09-30T04:49:55;15.80;99.90
43665;DHT22;29263;48.172;11.484;2023-09-30T04:52:23;15.80;99.90
43665;DHT22;29263;48.172;11.484;2023-09-30T04:54:53;15.80;99.90
43665;DHT22;29263;48.172;11.484;2023-09-30T04:57:18;15.80;99.90
43665;DHT22;29263;48.172;11.484;2023-09-30T04:59:45;15.80;99.90
43665;DHT22;29263;48.172;11.484;2023-09-30T05:02:12;15.70;99.90
43665;DHT22;29263;48.172;11.484;2023-09-30T05:04:43;15.70;99.90
43665;DHT22;29263;48.172;11.484;2023-09-30T05:07:09;15.70;99.90
43665;DHT22;29263;48.172;11.484;2023-09-30T05:09:38;15.60;99.90
43665;DHT22;29263;48.172;11.484;2023-09-30T05:12:04;15.50;99.90
43665;DHT22;29263;48.172;11.484;2023-09-30T05:14:30;15.40;99.90
43665;DHT22;29263;48.172;11.484;2023-09-30T05:16:57;15.40;99.90
43665;DHT22;29263;48.172;11.484;2023-09-30T05:19:25;15.40;99.90
43665;DHT22;29263;48.172;11.484;2023-09-30T05:21:51;15.40;99.90
43665;DHT22;29263;48.172;11.484;2023-09-30T05:24:17;15.40;99.90
43665;DHT22;29263;48.172;11.484;2023-09-30T05:26:47;15.30;99.90
43665;DHT22;29263;48.172;11.484;2023-09-30T05:29:14;15.30;99.90
43665;DHT22;29263;48.172;11.484;2023-09-30T05:31:43;15.30;99.90
43665;DHT22;29263;48.172;11.484;2023-09-30T05:34:23;15.30;99.90
43665;DHT22;29263;48.172;11.484;2023-09-30T05:37:05;15.30;99.90
43665;DHT22;29263;48.172;11.484;2023-09-30T05:43:03;15.30;99.90
43665;DHT22;29263;48.172;11.484;2023-09-30T05:45:40;15.30;99.90
43665;DHT22;29263;48.172;11.484;2023-09-30T05:48:15;15.30;99.90
43665;DHT22;29263;48.172;11.484;2023-09-30T05:53:31;15.20;99.90
43665;DHT22;29263;48.172;11.484;2023-09-30T05:56:10;15.30;99.90
43665;DHT22;29263;48.172;11.484;2023-09-30T05:58:42;15.30;99.90
43665;DHT22;29263;48.172;11.484;2023-09-30T06:01:13;15.30;99.90
43665;DHT22;29263;48.172;11.484;2023-09-30T06:03:46;15.30;99.90
43665;DHT22;29263;48.172;11.484;2023-09-30T06:13:04;15.50;99.90
43665;DHT22;29263;48.172;11.484;2023-09-30T06:15:36;15.50;99.90
43665;DHT22;29263;48.172;11.484;2023-09-30T06:18:11;15.60;99.90
43665;DHT22;29263;48.172;11.484;2023-09-30T06:20:48;15.50;99.90
43665;DHT22;29263;48.172;11.484;2023-09-30T06:23:14;15.60;99.90
43665;DHT22;29263;48.172;11.484;2023-09-30T06:25:43;15.60;99.90
43665;DHT22;29263;48.172;11.484;2023-09-30T06:28:14;15.70;99.90
43665;DHT22;29263;48.172;11.484;2023-09-30T06:30:53;15.70;99.90
43665;DHT22;29263;48.172;11.484;2023-09-30T06:33:20;15.70;99.90
43665;DHT22;29263;48.172;11.484;2023-09-30T06:35:46;15.70;99.90
43665;DHT22;29263;48.172;11.484;2023-09-30T06:38:21;15.70;99.90
43665;DHT22;29263;48.172;11.484;2023-09-30T06:40:47;15.70;99.90
43665;DHT22;29263;48.172;11.484;2023-09-30T06:43:16;15.70;99.90
43665;DHT22;29263;48.172;11.484;2023-09-30T06:45:43;15.70;99.90
43665;DHT22;29263;48.172;11.484;2023-09-30T06:48:09;15.70;99.90
43665;DHT22;29263;48.172;11.484;2023-09-30T06:50:44;15.70;99.90
43665;DHT22;29263;48.172;11.484;2023-09-30T06:53:11;15.70;99.90
43665;DHT22;29263;48.172;11.484;2023-09-30T06:55:38;15.70;99.90
43665;DHT22;29263;48.172;11.484;2023-09-30T06:58:05;15.80;99.90
43665;DHT22;29263;48.172;11.484;2023-09-30T07:00:33;15.90;99.90
43665;DHT22;29263;48.172;11.484;2023-09-30T07:02:59;15.80;99.90
43665;DHT22;29263;48.172;11.484;2023-09-30T07:05:25;15.90;99.90
43665;DHT22;29263;48.172;11.484;2023-09-30T07:07:51;15.90;99.90
43665;DHT22;29263;48.172;11.484;2023-09-30T07:10:17;15.90;99.90
43665;DHT22;29263;48.172;11.484;2023-09-30T07:12:42;15.90;99.90
43665;DHT22;29263;48.172;11.484;2023-09-30T07:15:08;16.00;99.90
43665;DHT22;29263;48.172;11.484;2023-09-30T07:17:34;16.00;99.90
43665;DHT22;29263;48.172;11.484;2023-09-30T07:20:01;16.00;99.90
43665;DHT22;29263;48.172;11.484;2023-09-30T07:22:27;16.00;99.90
43665;DHT22;29263;48.172;11.484;2023-09-30T07:24:53;16.00;99.90
43665;DHT22;29263;48.172;11.484;2023-09-30T07:27:18;16.00;99.90
43665;DHT22;29263;48.172;11.484;2023-09-30T07:29:44;16.10;99.90
43665;DHT22;29263;48.172;11.484;2023-09-30T07:32:10;16.10;99.90
43665;DHT22;29263;48.172;11.484;2023-09-30T07:34:36;16.20;99.90
43665;DHT22;29263;48.172;11.484;2023-09-30T07:37:01;16.20;99.90
43665;DHT22;29263;48.172;11.484;2023-09-30T07:39:27;16.30;99.90
43665;DHT22;29263;48.172;11.484;2023-09-30T07:41:52;16.30;99.90
43665;DHT22;29263;48.172;11.484;2023-09-30T07:44:18;16.30;99.90
43665;DHT22;29263;48.172;11.484;2023-09-30T07:46:44;16.40;99.90
43665;DHT22;29263;48.172;11.484;2023-09-30T07:49:10;16.50;99.90
43665;DHT22;29263;48.172;11.484;2023-09-30T07:51:36;16.50;99.90
43665;DHT22;29263;48.172;11.484;2023-09-30T07:54:03;16.50;99.90
43665;DHT22;29263;48.172;11.484;2023-09-30T07:56:29;16.50;99.90
43665;DHT22;29263;48.172;11.484;2023-09-30T07:58:55;16.50;99.90
43665;DHT22;29263;48.172;11.484;2023-09-30T08:01:20;16.50;99.90
43665;DHT22;29263;48.172;11.484;2023-09-30T08:03:46;16.50;99.90
43665;DHT22;29263;48.172;11.484;2023-09-30T08:06:12;16.70;99.90
43665;DHT22;29263;48.172;11.484;2023-09-30T08:08:38;16.70;99.90
43665;DHT22;29263;48.172;11.484;2023-09-30T08:11:03;16.80;99.90
43665;DHT22;29263;48.172;11.484;2023-09-30T08:13:31;16.80;99.90
43665;DHT22;29263;48.172;11.484;2023-09-30T08:15:58;16.90;99.90
43665;DHT22;29263;48.172;11.484;2023-09-30T08:18:23;16.90;99.90
43665;DHT22;29263;48.172;11.484;2023-09-30T08:20:49;16.90;99.90
43665;DHT22;29263;48.172;11.484;2023-09-30T08:23:15;16.80;99.90
43665;DHT22;29263;48.172;11.484;2023-09-30T08:25:41;16.80;99.90
43665;DHT22;29263;48.172;11.484;2023-09-30T08:28:07;16.80;99.90
43665;DHT22;29263;48.172;11.484;2023-09-30T08:30:35;16.80;99.90
43665;DHT22;29263;48.172;11.484;2023-09-30T08:33:00;16.90;99.90
43665;DHT22;29263;48.172;11.484;2023-09-30T08:35:26;17.00;99.90
43665;DHT22;29263;48.172;11.484;2023-09-30T08:37:52;17.10;99.90
43665;DHT22;29263;48.172;11.484;2023-09-30T08:40:21;17.10;99.90
43665;DHT22;29263;48.172;11.484;2023-09-30T08:42:53;17.10;99.90
43665;DHT22;29263;48.172;11.484;2023-09-30T08:45:19;17.20;99.90
43665;DHT22;29263;48.172;11.484;2023-09-30T08:47:45;17.20;99.90
43665;DHT22;29263;48.172;11.484;2023-09-30T08:50:16;17.20;99.90
43665;DHT22;29263;48.172;11.484;2023-09-30T08:52:43;17.20;99.90
43665;DHT22;29263;48.172;11.484;2023-09-30T08:55:11;17.20;99.90
43665;DHT22;29263;48.172;11.484;2023-09-30T08:57:39;17.20;99.90
43665;DHT22;29263;48.172;11.484;2023-09-30T09:00:06;17.30;99.90
43665;DHT22;29263;48.172;11.484;2023-09-30T09:02:35;17.20;99.90
43665;DHT22;29263;48.172;11.484;2023-09-30T09:05:02;17.20;99.90
43665;DHT22;29263;48.172;11.484;2023-09-30T09:07:28;17.30;99.90
43665;DHT22;29263;48.172;11.484;2023-09-30T09:10:08;17.40;99.90
43665;DHT22;29263;48.172;11.484;2023-09-30T09:12:36;17.50;99.90
43665;DHT22;29263;48.172;11.484;2023-09-30T09:15:03;17.60;99.90
43665;DHT22;29263;48.172;11.484;2023-09-30T09:17:41;17.60;99.90
43665;DHT22;29263;48.172;11.484;2023-09-30T09:20:18;17.50;99.90
43665;DHT22;29263;48.172;11.484;2023-09-30T09:22:49;17.60;99.90
43665;DHT22;29263;48.172;11.484;2023-09-30T09:25:16;17.50;99.90
43665;DHT22;29263;48.172;11.484;2023-09-30T09:27:42;17.60;99.90
43665;DHT22;29263;48.172;11.484;2023-09-30T09:30:15;17.60;99.90
43665;DHT22;29263;48.172;11.484;2023-09-30T09:32:55;17.60;99.90
43665;DHT22;29263;48.172;11.484;2023-09-30T09:35:23;17.60;99.90
43665;DHT22;29263;48.172;11.484;2023-09-30T09:37:58;17.60;99.90
43665;DHT22;29263;48.172;11.484;2023-09-30T09:40:29;17.60;99.90
43665;DHT22;29263;48.172;11.484;2023-09-30T09:42:57;17.60;99.90
43665;DHT22;29263;48.172;11.484;2023-09-30T09:45:24;17.50;99.90
43665;DHT22;29263;48.172;11.484;2023-09-30T09:47:51;17.60;99.90
43665;DHT22;29263;48.172;11.484;2023-09-30T09:50:22;17.60;99.90
43665;DHT22;29263;48.172;11.484;2023-09-30T09:52:49;17.70;99.90
43665;DHT22;29263;48.172;11.484;2023-09-30T09:55:21;17.70;99.90
43665;DHT22;29263;48.172;11.484;2023-09-30T09:57:48;17.70;99.90
43665;DHT22;29263;48.172;11.484;2023-09-30T10:00:19;17.80;99.90
43665;DHT22;29263;48.172;11.484;2023-09-30T10:02:46;17.90;99.90
43665;DHT22;29263;48.172;11.484;2023-09-30T10:05:13;17.90;99.90
43665;DHT22;29263;48.172;11.484;2023-09-30T10:10:23;17.90;99.90
43665;DHT22;29263;48.172;11.484;2023-09-30T10:12:49;18.00;99.90
43665;DHT22;29263;48.172;11.484;2023-09-30T10:18:06;18.10;99.90
43665;DHT22;29263;48.172;11.484;2023-09-30T10:20:39;18.20;99.90
43665;DHT22;29263;48.172;11.484;2023-09-30T10:23:25;18.30;99.90
43665;DHT22;29263;48.172;11.484;2023-09-30T10:26:14;18.30;99.40
43665;DHT22;29263;48.172;11.484;2023-09-30T10:28:44;18.40;99.30
43665;DHT22;29263;48.172;11.484;2023-09-30T10:31:14;18.30;99.00
43665;DHT22;29263;48.172;11.484;2023-09-30T10:36:34;18.40;99.70
43665;DHT22;29263;48.172;11.484;2023-09-30T10:39:02;18.40;99.50
43665;DHT22;29263;48.172;11.484;2023-09-30T10:46:57;18.40;99.20
43665;DHT22;29263;48.172;11.484;2023-09-30T10:51:50;18.50;99.40
43665;DHT22;29263;48.172;11.484;2023-09-30T10:54:25;18.40;98.50
43665;DHT22;29263;48.172;11.484;2023-09-30T10:56:52;18.50;99.20
43665;DHT22;29263;48.172;11.484;2023-09-30T10:59:28;18.60;98.90
43665;DHT22;29263;48.172;11.484;2023-09-30T11:01:56;18.70;98.00
43665;DHT22;29263;48.172;11.484;2023-09-30T11:04:21;18.80;98.70
43665;DHT22;29263;48.172;11.484;2023-09-30T11:06:47;18.80;97.70
43665;DHT22;29263;48.172;11.484;2023-09-30T11:09:17;18.90;97.60
43665;DHT22;29263;48.172;11.484;2023-09-30T11:11:44;18.90;97.10
43665;DHT22;29263;48.172;11.484;2023-09-30T11:14:29;18.90;97.20
43665;DHT22;29263;48.172;11.484;2023-09-30T11:16:56;18.90;96.40
43665;DHT22;29263;48.172;11.484;2023-09-30T11:19:23;18.80;96.60
43665;DHT22;29263;48.172;11.484;2023-09-30T11:21:50;18.80;97.20
43665;DHT22;29263;48.172;11.484;2023-09-30T11:24:16;18.80;97.20
43665;DHT22;29263;48.172;11.484;2023-09-30T11:26:43;18.80;96.70
43665;DHT22;29263;48.172;11.484;2023-09-30T11:29:11;18.90;96.00
43665;DHT22;29263;48.172;11.484;2023-09-30T11:31:40;18.90;96.60
43665;DHT22;29263;48.172;11.484;2023-09-30T11:34:06;19.00;96.50
43665;DHT22;29263;48.172;11.484;2023-09-30T11:36:35;18.90;96.80
43665;DHT22;29263;48.172;11.484;2023-09-30T11:39:01;19.00;96.30
43665;DHT22;29263;48.172;11.484;2023-09-30T11:41:35;19.10;96.50
43665;DHT22;29263;48.172;11.484;2023-09-30T11:44:10;19.10;95.90
43665;DHT22;29263;48.172;11.484;2023-09-30T11:47:01;19.00;95.60
43665;DHT22;29263;48.172;11.484;2023-09-30T11:49:38;18.90;96.00
43665;DHT22;29263;48.172;11.484;2023-09-30T11:52:09;19.00;96.00
43665;DHT22;29263;48.172;11.484;2023-09-30T11:54:40;18.90;95.40
43665;DHT22;29263;48.172;11.484;2023-09-30T11:57:09;19.00;95.40
43665;DHT22;29263;48.172;11.484;2023-09-30T11:59:38;19.00;95.10
43665;DHT22;29263;48.172;11.484;2023-09-30T12:02:07;19.00;95.20
43665;DHT22;29263;48.172;11.484;2023-09-30T12:04:34;19.00;94.90
43665;DHT22;29263;48.172;11.484;2023-09-30T12:07:00;19.10;94.40
43665;DHT22;29263;48.172;11.484;2023-09-30T12:09:26;19.00;94.80
43665;DHT22;29263;48.172;11.484;2023-09-30T12:11:53;19.00;95.20
43665;DHT22;29263;48.172;11.484;2023-09-30T12:14:19;19.10;94.60
43665;DHT22;29263;48.172;11.484;2023-09-30T12:16:46;19.20;93.90
43665;DHT22;29263;48.172;11.484;2023-09-30T12:19:13;19.10;94.10
43665;DHT22;29263;48.172;11.484;2023-09-30T12:21:41;19.10;93.80
43665;DHT22;29263;48.172;11.484;2023-09-30T12:24:07;19.00;93.40
43665;DHT22;29263;48.172;11.484;2023-09-30T12:26:35;19.00;93.50
43665;DHT22;29263;48.172;11.484;2023-09-30T12:29:00;19.00;93.50
43665;DHT22;29263;48.172;11.484;2023-09-30T12:31:26;19.00;94.00
43665;DHT22;29263;48.172;11.484;2023-09-30T12:33:52;19.00;94.70
43665;DHT22;29263;48.172;11.484;2023-09-30T12:36:19;19.10;94.10
43665;DHT22;29263;48.172;11.484;2023-09-30T12:38:44;19.20;94.20
43665;DHT22;29263;48.172;11.484;2023-09-30T12:41:10;19.40;93.70
43665;DHT22;29263;48.172;11.484;2023-09-30T12:43:37;19.60;92.80
43665;DHT22;29263;48.172;11.484;2023-09-30T12:46:03;19.70;93.60
43665;DHT22;29263;48.172;11.484;2023-09-30T12:48:30;19.80;93.00
43665;DHT22;29263;48.172;11.484;2023-09-30T12:50:55;19.90;93.60
43665;DHT22;29263;48.172;11.484;2023-09-30T12:53:21;19.90;93.10
43665;DHT22;29263;48.172;11.484;2023-09-30T12:55:47;19.90;93.50
43665;DHT22;29263;48.172;11.484;2023-09-30T12:58:12;19.70;93.70
43665;DHT22;29263;48.172;11.484;2023-09-30T13:00:38;19.60;94.00
43665;DHT22;29263;48.172;11.484;2023-09-30T13:03:04;19.60;94.00
43665;DHT22;29263;48.172;11.484;2023-09-30T13:05:29;19.50;93.40
43665;DHT22;29263;48.172;11.484;2023-09-30T13:07:56;19.40;93.90
43665;DHT22;29263;48.172;11.484;2023-09-30T13:10:22;19.50;94.10
43665;DHT22;29263;48.172;11.484;2023-09-30T13:12:48;19.40;94.10
43665;DHT22;29263;48.172;11.484;2023-09-30T13:15:15;19.40;93.30
43665;DHT22;29263;48.172;11.484;2023-09-30T13:17:42;19.30;92.80
43665;DHT22;29263;48.172;11.484;2023-09-30T13:20:08;19.30;92.20
43665;DHT22;29263;48.172;11.484;2023-09-30T13:22:35;19.30;92.10
43665;DHT22;29263;48.172;11.484;2023-09-30T13:25:04;19.20;92.60
43665;DHT22;29263;48.172;11.484;2023-09-30T13:27:31;19.20;93.00
43665;DHT22;29263;48.172;11.484;2023-09-30T13:29:56;19.10;93.20
43665;DHT22;29263;48.172;11.484;2023-09-30T13:32:24;19.20;94.00
43665;DHT22;29263;48.172;11.484;2023-09-30T13:34:52;19.20;94.40
43665;DHT22;29263;48.172;11.484;2023-09-30T13:37:18;19.20;94.00
43665;DHT22;29263;48.172;11.484;2023-09-30T13:39:44;19.30;94.40
43665;DHT22;29263;48.172;11.484;2023-09-30T13:42:09;19.30;94.60
43665;DHT22;29263;48.172;11.484;2023-09-30T13:44:35;19.30;95.00
43665;DHT22;29263;48.172;11.484;2023-09-30T13:47:02;19.30;95.00
43665;DHT22;29263;48.172;11.484;2023-09-30T13:49:28;19.40;94.30
43665;DHT22;29263;48.172;11.484;2023-09-30T13:51:53;19.50;93.00
43665;DHT22;29263;48.172;11.484;2023-09-30T13:54:19;19.50;93.70
43665;DHT22;29263;48.172;11.484;2023-09-30T13:56:45;19.60;93.30
43665;DHT22;29263;48.172;11.484;2023-09-30T13:59:10;19.70;92.50
43665;DHT22;29263;48.172;11.484;2023-09-30T14:01:36;19.80;92.10
43665;DHT22;29263;48.172;11.484;2023-09-30T14:04:02;20.00;92.10
43665;DHT22;29263;48.172;11.484;2023-09-30T14:06:28;20.00;91.90
43665;DHT22;29263;48.172;11.484;2023-09-30T14:08:55;20.10;92.40
43665;DHT22;29263;48.172;11.484;2023-09-30T14:11:21;20.10;91.60
43665;DHT22;29263;48.172;11.484;2023-09-30T14:13:46;20.10;92.00
43665;DHT22;29263;48.172;11.484;2023-09-30T14:16:12;20.00;92.40
43665;DHT22;29263;48.172;11.484;2023-09-30T14:18:37;19.90;91.90
43665;DHT22;29263;48.172;11.484;2023-09-30T14:21:05;19.90;91.90
43665;DHT22;29263;48.172;11.484;2023-09-30T14:23:31;19.90;91.70
43665;DHT22;29263;48.172;11.484;2023-09-30T14:25:56;20.00;92.10
43665;DHT22;29263;48.172;11.484;2023-09-30T14:28:23;20.00;91.90
43665;DHT22;29263;48.172;11.484;2023-09-30T14:30:49;20.00;91.60
43665;DHT22;29263;48.172;11.484;2023-09-30T14:33:18;20.10;91.60
43665;DHT22;29263;48.172;11.484;2023-09-30T14:35:47;20.00;91.60
43665;DHT22;29263;48.172;11.484;2023-09-30T14:38:13;20.00;91.80
43665;DHT22;29263;48.172;11.484;2023-09-30T14:40:40;19.90;91.30
43665;DHT22;29263;48.172;11.484;2023-09-30T14:43:07;19.80;90.60
43665;DHT22;29263;48.172;11.484;2023-09-30T14:45:37;19.70;91.30
43665;DHT22;29263;48.172;11.484;2023-09-30T14:48:03;19.60;92.50
43665;DHT22;29263;48.172;11.484;2023-09-30T14:50:29;19.50;92.80
43665;DHT22;29263;48.172;11.484;2023-09-30T14:52:54;19.50;92.40
43665;DHT22;29263;48.172;11.484;2023-09-30T14:55:20;19.30;92.10
43665;DHT22;29263;48.172;11.484;2023-09-30T14:57:46;19.30;92.80
43665;DHT22;29263;48.172;11.484;2023-09-30T15:00:13;19.30;93.20
43665;DHT22;29263;48.172;11.484;2023-09-30T15:02:38;19.30;93.80
43665;DHT22;29263;48.172;11.484;2023-09-30T15:05:06;19.20;93.30
43665;DHT22;29263;48.172;11.484;2023-09-30T15:07:31;19.20;94.00
43665;DHT22;29263;48.172;11.484;2023-09-30T15:09:57;19.20;94.50
43665;DHT22;29263;48.172;11.484;2023-09-30T15:12:23;19.10;94.20
43665;DHT22;29263;48.172;11.484;2023-09-30T15:14:49;19.10;94.40
43665;DHT22;29263;48.172;11.484;2023-09-30T15:17:14;19.10;93.60
43665;DHT22;29263;48.172;11.484;2023-09-30T15:19:40;19.00;93.80
43665;DHT22;29263;48.172;11.484;2023-09-30T15:22:06;19.00;94.10
43665;DHT22;29263;48.172;11.484;2023-09-30T15:24:31;18.90;94.50
43665;DHT22;29263;48.172;11.484;2023-09-30T15:26:57;18.90;94.90
43665;DHT22;29263;48.172;11.484;2023-09-30T15:29:22;18.90;95.20
43665;DHT22;29263;48.172;11.484;2023-09-30T15:31:48;18.90;94.90
43665;DHT22;29263;48.172;11.484;2023-09-30T15:34:13;18.80;94.10
43665;DHT22;29263;48.172;11.484;2023-09-30T15:36:39;18.80;94.70
43665;DHT22;29263;48.172;11.484;2023-09-30T15:39:05;18.80;95.20
43665;DHT22;29263;48.172;11.484;2023-09-30T15:41:31;18.80;94.50
43665;DHT22;29263;48.172;11.484;2023-09-30T15:44:00;18.80;94.90
43665;DHT22;29263;48.172;11.484;2023-09-30T15:46:25;18.80;94.50
43665;DHT22;29263;48.172;11.484;2023-09-30T15:48:51;18.70;94.50
43665;DHT22;29263;48.172;11.484;2023-09-30T15:51:17;18.70;95.10
43665;DHT22;29263;48.172;11.484;2023-09-30T15:53:42;18.70;95.90
43665;DHT22;29263;48.172;11.484;2023-09-30T15:56:09;18.70;95.50
43665;DHT22;29263;48.172;11.484;2023-09-30T15:58:35;18.60;96.00
43665;DHT22;29263;48.172;11.484;2023-09-30T16:01:01;18.60;96.70
43665;DHT22;29263;48.172;11.484;2023-09-30T16:03:27;18.50;96.70
43665;DHT22;29263;48.172;11.484;2023-09-30T16:05:52;18.40;96.30
43665;DHT22;29263;48.172;11.484;2023-09-30T16:08:18;18.30;96.20
43665;DHT22;29263;48.172;11.484;2023-09-30T16:10:44;18.20;97.50
43665;DHT22;29263;48.172;11.484;2023-09-30T16:13:10;18.10;97.80
43665;DHT22;29263;48.172;11.484;2023-09-30T16:15:40;18.00;98.30
43665;DHT22;29263;48.172;11.484;2023-09-30T16:18:06;17.90;98.20
43665;DHT22;29263;48.172;11.484;2023-09-30T16:20:32;17.80;98.30
43665;DHT22;29263;48.172;11.484;2023-09-30T16:22:58;17.80;98.40